createdAt,value
2018-09-25T00:00:01.964Z,23.27
2018-09-25T00:01:02.587Z,23.28
2018-09-25T00:02:03.168Z,23.20
2018-09-25T00:03:03.754Z,23.21
2018-09-25T00:04:04.330Z,23.27
2018-09-25T00:05:04.963Z,23.17
2018-09-25T00:06:05.594Z,23.17
2018-09-25T00:07:06.177Z,23.18
2018-09-25T00:08:06.759Z,23.17
2018-09-25T00:09:07.341Z,23.17
2018-09-25T00:10:07.956Z,23.17
2018-09-25T00:11:53.017Z,23.20
2018-09-25T00:12:53.599Z,23.17
2018-09-25T00:13:54.332Z,23.17
2018-09-25T00:14:54.913Z,23.23
2018-09-25T00:15:55.497Z,23.17
2018-09-25T00:16:56.118Z,23.18
2018-09-25T00:17:56.699Z,23.21
2018-09-25T00:18:57.294Z,23.15
2018-09-25T00:19:57.860Z,23.15
2018-09-25T00:20:58.483Z,23.17
2018-09-25T00:21:59.116Z,23.18
2018-09-25T00:22:59.695Z,23.20
2018-09-25T00:24:00.279Z,23.21
2018-09-25T00:25:00.903Z,23.23
2018-09-25T00:26:46.088Z,23.17
2018-09-25T00:27:46.672Z,23.17
2018-09-25T00:28:47.255Z,23.09
2018-09-25T00:29:47.837Z,23.21
2018-09-25T00:30:48.417Z,23.06
2018-09-25T00:31:48.996Z,23.09
2018-09-25T00:32:49.629Z,23.15
2018-09-25T00:33:50.253Z,23.17
2018-09-25T00:34:50.837Z,23.15
2018-09-25T00:35:51.418Z,23.18
2018-09-25T00:36:51.999Z,23.06
2018-09-25T00:37:52.628Z,23.10
2018-09-25T00:38:53.261Z,23.06
2018-09-25T00:39:53.841Z,23.10
2018-09-25T00:41:38.935Z,23.13
2018-09-25T00:42:39.518Z,23.06
2018-09-25T00:43:40.100Z,23.08
2018-09-25T00:44:40.684Z,23.09
2018-09-25T00:45:41.317Z,23.03
2018-09-25T00:46:41.943Z,23.02
2018-09-25T00:47:42.564Z,23.08
2018-09-25T00:48:43.189Z,23.00
2018-09-25T00:49:43.771Z,23.03
2018-09-25T00:50:44.351Z,23.00
2018-09-25T00:51:44.932Z,23.13
2018-09-25T00:52:45.511Z,23.03
2018-09-25T00:53:46.091Z,23.02
2018-09-25T00:54:46.723Z,23.05
2018-09-25T00:56:31.865Z,23.02
2018-09-25T00:57:32.452Z,23.03
2018-09-25T00:58:33.032Z,23.03
2018-09-25T00:59:33.664Z,23.06
2018-09-25T01:00:34.247Z,23.05
2018-09-25T01:01:34.878Z,23.02
2018-09-25T01:02:35.460Z,23.05
2018-09-25T01:03:36.040Z,23.06
2018-09-25T01:04:36.619Z,23.05
2018-09-25T01:05:37.200Z,22.98
2018-09-25T01:06:37.780Z,23.05
2018-09-25T01:07:38.362Z,23.00
2018-09-25T01:08:38.944Z,23.00
2018-09-25T01:09:39.531Z,22.96
2018-09-25T01:11:24.620Z,22.94
2018-09-25T01:12:25.202Z,22.96
2018-09-25T01:13:25.785Z,22.96
2018-09-25T01:14:26.418Z,22.87
2018-09-25T01:15:27.000Z,22.90
2018-09-25T01:16:27.582Z,22.84
2018-09-25T01:17:28.165Z,22.87
2018-09-25T01:18:28.796Z,22.91
2018-09-25T01:19:29.376Z,22.87
2018-09-25T01:20:30.010Z,22.87
2018-09-25T01:21:30.590Z,22.85
2018-09-25T01:22:31.170Z,22.88
2018-09-25T01:23:31.749Z,22.84
2018-09-25T01:24:32.330Z,22.84
2018-09-25T01:26:17.424Z,22.87
2018-09-25T01:27:18.006Z,22.84
2018-09-25T01:28:18.588Z,22.84
2018-09-25T01:29:19.171Z,22.87
2018-09-25T01:30:19.801Z,22.88
2018-09-25T01:31:20.383Z,22.87
2018-09-25T01:32:20.966Z,22.83
2018-09-25T01:34:23.160Z,22.83
2018-09-25T01:35:37.550Z,22.87
2018-09-25T01:36:38.155Z,22.81
2018-09-25T01:37:38.730Z,22.85
2018-09-25T01:38:39.354Z,22.90
2018-09-25T01:39:39.929Z,22.81
2018-09-25T01:40:40.504Z,22.75
2018-09-25T01:41:41.077Z,22.80
2018-09-25T01:42:41.652Z,22.76
2018-09-25T01:43:42.226Z,22.81
2018-09-25T01:44:42.802Z,22.76
2018-09-25T01:45:43.379Z,22.78
2018-09-25T01:46:43.948Z,22.84
2018-09-25T01:47:44.524Z,22.83
2018-09-25T01:48:45.100Z,22.76
2018-09-25T01:50:30.173Z,22.81
2018-09-25T01:51:30.749Z,22.83
2018-09-25T01:52:31.323Z,22.80
2018-09-25T01:53:31.949Z,22.81
2018-09-25T01:54:32.524Z,22.75
2018-09-25T01:55:33.101Z,22.81
2018-09-25T01:56:33.725Z,22.78
2018-09-25T01:57:34.302Z,22.76
2018-09-25T01:58:34.918Z,22.84
2018-09-25T01:59:35.494Z,22.80
2018-09-25T02:00:36.071Z,22.80
2018-09-25T02:01:36.644Z,22.81
2018-09-25T02:02:37.219Z,22.81
2018-09-25T02:03:37.795Z,22.80
2018-09-25T02:05:22.722Z,22.85
2018-09-25T02:06:23.340Z,22.78
2018-09-25T02:07:23.917Z,22.78
2018-09-25T02:08:24.492Z,22.78
2018-09-25T02:09:25.121Z,22.73
2018-09-25T02:10:25.695Z,22.75
2018-09-25T02:11:26.269Z,22.75
2018-09-25T02:12:26.896Z,22.87
2018-09-25T02:13:27.520Z,22.78
2018-09-25T02:14:28.096Z,22.76
2018-09-25T02:15:28.670Z,22.76
2018-09-25T02:16:29.244Z,22.78
2018-09-25T02:17:29.821Z,22.73
2018-09-25T02:18:30.395Z,22.80
2018-09-25T02:20:15.322Z,22.70
2018-09-25T02:21:15.897Z,22.72
2018-09-25T02:22:16.474Z,22.72
2018-09-25T02:23:17.049Z,22.72
2018-09-25T02:24:17.624Z,22.70
2018-09-25T02:25:18.199Z,22.72
2018-09-25T02:26:18.776Z,22.75
2018-09-25T02:27:19.395Z,22.76
2018-09-25T02:28:19.972Z,22.73
2018-09-25T02:29:20.546Z,22.68
2018-09-25T02:30:21.176Z,22.73
2018-09-25T02:31:21.790Z,22.75
2018-09-25T02:32:22.416Z,22.76
2018-09-25T02:33:23.042Z,22.75
2018-09-25T02:35:07.969Z,22.72
2018-09-25T02:36:08.547Z,22.70
2018-09-25T02:37:09.121Z,22.72
2018-09-25T02:38:09.698Z,22.73
2018-09-25T02:39:10.275Z,22.70
2018-09-25T02:40:10.850Z,22.76
2018-09-25T02:41:11.424Z,22.72
2018-09-25T02:42:12.001Z,22.70
2018-09-25T02:43:12.597Z,22.68
2018-09-25T02:44:13.152Z,22.70
2018-09-25T02:45:13.735Z,22.78
2018-09-25T02:46:14.303Z,22.73
2018-09-25T02:47:14.878Z,22.69
2018-09-25T02:48:15.455Z,22.68
2018-09-25T02:50:00.430Z,22.72
2018-09-25T02:51:01.004Z,22.73
2018-09-25T02:52:01.735Z,22.63
2018-09-25T02:53:02.308Z,22.69
2018-09-25T02:54:02.934Z,22.66
2018-09-25T02:55:03.514Z,22.70
2018-09-25T02:56:04.131Z,22.72
2018-09-25T02:57:04.755Z,22.63
2018-09-25T02:58:05.330Z,22.62
2018-09-25T02:59:05.906Z,22.60
2018-09-25T03:00:06.529Z,22.60
2018-09-25T03:01:07.140Z,22.59
2018-09-25T03:02:07.715Z,22.60
2018-09-25T03:03:08.291Z,22.72
2018-09-25T03:04:53.220Z,22.62
2018-09-25T03:05:53.796Z,22.65
2018-09-25T03:06:54.369Z,22.63
2018-09-25T03:07:54.996Z,22.60
2018-09-25T03:08:55.573Z,22.65
2018-09-25T03:09:56.242Z,22.62
2018-09-25T03:10:56.819Z,22.62
2018-09-25T03:11:57.445Z,22.63
2018-09-25T03:12:58.021Z,22.62
2018-09-25T03:13:58.596Z,22.65
2018-09-25T03:14:59.171Z,22.55
2018-09-25T03:15:59.798Z,22.62
2018-09-25T03:17:00.406Z,22.57
2018-09-25T03:18:01.001Z,22.57
2018-09-25T03:19:45.908Z,22.63
2018-09-25T03:20:46.483Z,22.65
2018-09-25T03:21:47.062Z,22.57
2018-09-25T03:22:47.636Z,22.63
2018-09-25T03:23:48.255Z,22.62
2018-09-25T03:24:48.786Z,22.60
2018-09-25T03:25:49.360Z,22.63
2018-09-25T03:26:49.937Z,22.59
2018-09-25T03:27:50.511Z,22.63
2018-09-25T03:28:51.088Z,22.59
2018-09-25T03:29:51.712Z,22.59
2018-09-25T03:30:52.337Z,22.59
2018-09-25T03:31:52.917Z,22.48
2018-09-25T03:32:53.583Z,22.48
2018-09-25T03:34:38.509Z,22.51
2018-09-25T03:35:39.085Z,22.51
2018-09-25T03:36:39.661Z,22.63
2018-09-25T03:37:40.238Z,22.59
2018-09-25T03:38:40.814Z,22.51
2018-09-25T03:39:41.390Z,22.51
2018-09-25T03:40:41.965Z,22.48
2018-09-25T03:41:42.541Z,22.55
2018-09-25T03:42:43.117Z,22.55
2018-09-25T03:43:43.697Z,22.57
2018-09-25T03:44:44.272Z,22.48
2018-09-25T03:45:44.844Z,22.51
2018-09-25T03:46:45.422Z,22.53
2018-09-25T03:47:45.996Z,22.53
2018-09-25T03:49:31.021Z,22.63
2018-09-25T03:50:31.598Z,22.50
2018-09-25T03:51:32.176Z,22.54
2018-09-25T03:52:32.747Z,22.54
2018-09-25T03:53:33.324Z,22.47
2018-09-25T03:54:33.900Z,22.50
2018-09-25T03:55:34.524Z,22.48
2018-09-25T03:56:35.100Z,22.50
2018-09-25T03:57:35.674Z,22.47
2018-09-25T03:58:36.250Z,22.47
2018-09-25T03:59:36.880Z,22.48
2018-09-25T04:00:37.399Z,22.48
2018-09-25T04:01:37.975Z,22.59
2018-09-25T04:02:38.552Z,22.55
2018-09-25T04:04:23.477Z,22.54
2018-09-25T04:05:24.052Z,22.43
2018-09-25T04:06:24.627Z,22.48
2018-09-25T04:07:25.204Z,22.50
2018-09-25T04:08:25.780Z,22.55
2018-09-25T04:09:26.405Z,22.53
2018-09-25T04:10:27.002Z,22.48
2018-09-25T04:11:27.556Z,22.48
2018-09-25T04:12:28.131Z,22.47
2018-09-25T04:13:28.758Z,22.48
2018-09-25T04:14:29.334Z,22.44
2018-09-25T04:15:29.957Z,22.53
2018-09-25T04:16:30.531Z,22.48
2018-09-25T04:17:31.106Z,22.53
2018-09-25T04:19:16.039Z,22.44
2018-09-25T04:20:16.608Z,22.41
2018-09-25T04:21:17.184Z,22.50
2018-09-25T04:22:17.760Z,22.41
2018-09-25T04:23:18.334Z,22.50
2018-09-25T04:24:18.909Z,22.43
2018-09-25T04:25:19.483Z,22.41
2018-09-25T04:26:20.061Z,22.44
2018-09-25T04:27:20.634Z,22.45
2018-09-25T04:28:21.245Z,22.33
2018-09-25T04:29:21.786Z,22.33
2018-09-25T04:30:22.409Z,22.36
2018-09-25T04:31:23.037Z,22.43
2018-09-25T04:32:23.612Z,22.44
2018-09-25T04:34:08.537Z,22.48
2018-09-25T04:35:09.111Z,22.44
2018-09-25T04:36:09.688Z,22.44
2018-09-25T04:37:10.271Z,22.44
2018-09-25T04:38:10.841Z,22.38
2018-09-25T04:39:11.466Z,22.41
2018-09-25T04:40:12.039Z,22.43
2018-09-25T04:41:12.616Z,22.47
2018-09-25T04:42:13.191Z,22.41
2018-09-25T04:43:13.768Z,22.36
2018-09-25T04:44:14.342Z,22.38
2018-09-25T04:45:14.918Z,22.43
2018-09-25T04:46:15.543Z,22.47
2018-09-25T04:47:16.158Z,22.45
2018-09-25T04:49:01.133Z,22.41
2018-09-25T04:50:01.709Z,22.38
2018-09-25T04:51:02.286Z,22.45
2018-09-25T04:52:02.859Z,22.43
2018-09-25T04:53:03.435Z,22.43
2018-09-25T04:54:04.011Z,22.43
2018-09-25T04:55:04.585Z,22.44
2018-09-25T04:56:05.163Z,22.33
2018-09-25T04:57:05.853Z,22.39
2018-09-25T04:58:06.401Z,22.41
2018-09-25T04:59:06.975Z,22.44
2018-09-25T05:00:07.548Z,22.38
2018-09-25T05:01:08.125Z,22.45
2018-09-25T05:02:08.701Z,22.36
2018-09-25T05:03:53.628Z,22.44
2018-09-25T05:04:54.256Z,22.39
2018-09-25T05:05:54.831Z,22.32
2018-09-25T05:06:55.406Z,22.36
2018-09-25T05:07:56.033Z,22.39
2018-09-25T05:08:56.607Z,22.32
2018-09-25T05:09:57.185Z,22.39
2018-09-25T05:10:57.761Z,22.35
2018-09-25T05:11:58.366Z,22.30
2018-09-25T05:12:58.913Z,22.23
2018-09-25T05:13:59.487Z,22.22
2018-09-25T05:15:00.113Z,22.43
2018-09-25T05:16:00.687Z,22.29
2018-09-25T05:17:01.266Z,22.41
2018-09-25T05:18:46.189Z,22.38
2018-09-25T05:19:46.762Z,22.25
2018-09-25T05:20:47.338Z,22.23
2018-09-25T05:21:47.964Z,22.29
2018-09-25T05:22:48.542Z,22.39
2018-09-25T05:23:49.117Z,22.30
2018-09-25T05:24:49.727Z,22.28
2018-09-25T05:25:50.265Z,22.29
2018-09-25T05:26:50.841Z,22.38
2018-09-25T05:27:51.418Z,22.30
2018-09-25T05:28:51.993Z,22.38
2018-09-25T05:29:52.566Z,22.29
2018-09-25T05:30:53.192Z,22.28
2018-09-25T05:31:53.869Z,22.26
2018-09-25T05:33:38.792Z,22.43
2018-09-25T05:34:39.367Z,22.26
2018-09-25T05:35:39.943Z,22.28
2018-09-25T05:36:40.569Z,22.28
2018-09-25T05:37:41.145Z,22.26
2018-09-25T05:38:41.721Z,22.29
2018-09-25T05:39:42.296Z,22.28
2018-09-25T05:40:42.874Z,22.25
2018-09-25T05:41:43.447Z,22.26
2018-09-25T05:42:44.128Z,22.29
2018-09-25T05:43:44.703Z,22.29
2018-09-25T05:44:45.278Z,22.26
2018-09-25T05:45:45.853Z,22.33
2018-09-25T05:46:46.428Z,22.28
2018-09-25T05:48:31.447Z,22.26
2018-09-25T05:49:31.929Z,22.33
2018-09-25T05:50:32.555Z,22.30
2018-09-25T05:51:33.179Z,22.32
2018-09-25T05:52:33.757Z,22.29
2018-09-25T05:53:34.330Z,22.29
2018-09-25T05:54:34.908Z,22.26
2018-09-25T05:55:35.548Z,22.22
2018-09-25T05:56:36.055Z,22.26
2018-09-25T05:57:36.634Z,22.23
2018-09-25T05:58:37.212Z,22.22
2018-09-25T05:59:37.782Z,22.25
2018-09-25T06:00:38.412Z,22.22
2018-09-25T06:01:38.983Z,22.22
2018-09-25T06:03:23.909Z,22.23
2018-09-25T06:04:24.526Z,22.18
2018-09-25T06:05:25.103Z,22.20
2018-09-25T06:06:25.678Z,22.18
2018-09-25T06:07:26.302Z,22.23
2018-09-25T06:08:26.928Z,22.23
2018-09-25T06:09:27.558Z,22.28
2018-09-25T06:10:28.079Z,22.25
2018-09-25T06:11:28.656Z,22.23
2018-09-25T06:12:29.273Z,22.28
2018-09-25T06:13:29.848Z,22.23
2018-09-25T06:14:30.421Z,22.20
2018-09-25T06:15:31.002Z,22.18
2018-09-25T06:16:31.616Z,22.17
2018-09-25T06:18:16.690Z,22.22
2018-09-25T06:19:17.315Z,22.14
2018-09-25T06:20:17.943Z,22.18
2018-09-25T06:21:18.516Z,22.22
2018-09-25T06:22:19.090Z,22.23
2018-09-25T06:23:19.667Z,22.11
2018-09-25T06:24:20.242Z,22.23
2018-09-25T06:25:20.817Z,22.15
2018-09-25T06:26:21.393Z,22.11
2018-09-25T06:27:22.020Z,22.18
2018-09-25T06:28:22.595Z,22.13
2018-09-25T06:29:23.169Z,22.20
2018-09-25T06:30:23.742Z,22.15
2018-09-25T06:31:24.318Z,22.08
2018-09-25T06:33:09.241Z,22.11
2018-09-25T06:34:09.866Z,22.13
2018-09-25T06:35:10.442Z,22.14
2018-09-25T06:36:11.016Z,22.11
2018-09-25T06:37:11.653Z,22.22
2018-09-25T06:38:12.172Z,22.10
2018-09-25T06:39:12.787Z,22.10
2018-09-25T06:40:13.361Z,22.17
2018-09-25T06:41:13.936Z,22.17
2018-09-25T06:42:14.510Z,22.17
2018-09-25T06:43:15.135Z,22.17
2018-09-25T06:44:15.707Z,22.10
2018-09-25T06:45:16.283Z,22.18
2018-09-25T06:46:16.880Z,22.18
2018-09-25T06:48:01.789Z,22.14
2018-09-25T06:49:02.358Z,22.15
2018-09-25T06:50:02.983Z,22.13
2018-09-25T06:51:03.558Z,22.15
2018-09-25T06:52:04.184Z,22.13
2018-09-25T06:53:04.758Z,22.15
2018-09-25T06:54:05.335Z,22.13
2018-09-25T06:55:06.070Z,22.13
2018-09-25T06:56:06.485Z,22.14
2018-09-25T06:57:07.061Z,22.08
2018-09-25T06:58:07.639Z,22.14
2018-09-25T06:59:08.213Z,22.10
2018-09-25T07:00:08.837Z,22.15
2018-09-25T07:01:09.362Z,22.10
2018-09-25T07:02:54.290Z,22.18
2018-09-25T07:03:54.909Z,22.15
2018-09-25T07:04:55.483Z,22.14
2018-09-25T07:05:56.108Z,21.99
2018-09-25T07:06:56.683Z,21.95
2018-09-25T07:07:57.259Z,21.83
2018-09-25T07:08:57.838Z,21.87
2018-09-25T07:09:58.536Z,21.77
2018-09-25T07:10:59.034Z,21.77
2018-09-25T07:11:59.609Z,21.66
2018-09-25T07:13:00.184Z,21.62
2018-09-25T07:14:00.760Z,21.67
2018-09-25T07:15:01.333Z,21.72
2018-09-25T07:16:01.908Z,21.66
2018-09-25T07:17:46.913Z,21.58
2018-09-25T07:18:47.409Z,21.66
2018-09-25T07:19:48.027Z,21.61
2018-09-25T07:20:48.602Z,21.64
2018-09-25T07:21:49.176Z,21.58
2018-09-25T07:22:49.818Z,21.69
2018-09-25T07:23:50.334Z,21.58
2018-09-25T07:24:50.995Z,21.66
2018-09-25T07:25:51.526Z,21.57
2018-09-25T07:26:52.100Z,21.57
2018-09-25T07:27:52.725Z,21.57
2018-09-25T07:28:53.300Z,21.58
2018-09-25T07:29:53.965Z,21.66
2018-09-25T07:30:54.563Z,21.55
2018-09-25T07:32:39.515Z,21.52
2018-09-25T07:33:40.091Z,21.51
2018-09-25T07:34:40.666Z,21.58
2018-09-25T07:35:41.239Z,21.64
2018-09-25T07:36:41.816Z,21.57
2018-09-25T07:37:42.390Z,21.60
2018-09-25T07:38:42.964Z,21.66
2018-09-25T07:39:43.605Z,21.64
2018-09-25T07:40:44.164Z,21.70
2018-09-25T07:41:44.741Z,21.69
2018-09-25T07:42:45.366Z,21.75
2018-09-25T07:43:45.940Z,21.73
2018-09-25T07:44:46.565Z,21.73
2018-09-25T07:45:47.142Z,21.85
2018-09-25T07:47:32.066Z,21.82
2018-09-25T07:48:32.639Z,21.80
2018-09-25T07:49:33.215Z,21.92
2018-09-25T07:50:33.790Z,21.91
2018-09-25T07:51:34.364Z,21.83
2018-09-25T07:52:35.030Z,21.93
2018-09-25T07:53:35.606Z,21.95
2018-09-25T07:54:36.182Z,21.83
2018-09-25T07:55:36.790Z,21.91
2018-09-25T07:56:37.333Z,21.89
2018-09-25T07:57:37.906Z,21.87
2018-09-25T07:58:38.529Z,21.91
2018-09-25T07:59:39.156Z,21.92
2018-09-25T08:00:39.728Z,21.96
2018-09-25T08:02:24.655Z,21.92
2018-09-25T08:03:25.250Z,21.92
2018-09-25T08:04:25.807Z,22.06
2018-09-25T08:05:26.379Z,21.99
2018-09-25T08:06:26.953Z,22.02
2018-09-25T08:07:27.527Z,22.04
2018-09-25T08:08:28.152Z,22.11
2018-09-25T08:09:28.772Z,22.07
2018-09-25T08:10:29.346Z,21.98
2018-09-25T08:11:29.970Z,22.08
2018-09-25T08:12:30.546Z,22.02
2018-09-25T08:13:31.118Z,22.07
2018-09-25T08:14:31.694Z,22.08
2018-09-25T08:15:32.309Z,22.07
2018-09-25T08:17:17.193Z,22.02
2018-09-25T08:18:17.767Z,22.02
2018-09-25T08:19:18.343Z,22.07
2018-09-25T08:20:18.919Z,22.14
2018-09-25T08:21:19.542Z,22.14
2018-09-25T08:22:20.137Z,22.06
2018-09-25T08:23:20.692Z,22.11
2018-09-25T08:24:21.267Z,22.18
2018-09-25T08:25:21.844Z,22.15
2018-09-25T08:26:22.422Z,22.18
2018-09-25T08:27:23.049Z,22.15
2018-09-25T08:28:23.675Z,22.25
2018-09-25T08:29:24.250Z,22.23
2018-09-25T08:30:24.824Z,22.22
2018-09-25T08:33:26.186Z,22.26
2018-09-25T08:34:26.763Z,22.32
2018-09-25T08:35:27.339Z,22.30
2018-09-25T08:36:27.916Z,22.39
2018-09-25T08:37:28.490Z,22.25
2018-09-25T08:38:29.140Z,22.36
2018-09-25T08:39:29.842Z,22.36
2018-09-25T08:40:30.306Z,22.32
2018-09-25T08:41:30.881Z,22.45
2018-09-25T08:42:31.457Z,22.36
2018-09-25T08:43:32.084Z,22.41
2018-09-25T08:44:32.659Z,22.43
2018-09-25T08:45:33.235Z,22.41
2018-09-25T08:46:33.813Z,22.44
2018-09-25T08:48:18.737Z,22.50
2018-09-25T08:49:19.315Z,22.43
2018-09-25T08:50:19.984Z,22.45
2018-09-25T08:51:20.558Z,22.51
2018-09-25T08:52:21.135Z,22.59
2018-09-25T08:53:21.721Z,22.50
2018-09-25T08:54:22.333Z,22.50
2018-09-25T08:55:22.909Z,22.47
2018-09-25T08:56:23.534Z,22.55
2018-09-25T08:57:24.110Z,22.60
2018-09-25T08:58:24.736Z,22.60
2018-09-25T08:59:25.310Z,22.65
2018-09-25T09:00:25.886Z,22.59
2018-09-25T09:01:26.468Z,22.60
2018-09-25T09:03:11.482Z,22.60
2018-09-25T09:04:12.060Z,22.60
2018-09-25T09:05:12.636Z,22.68
2018-09-25T09:06:13.213Z,22.63
2018-09-25T09:07:13.794Z,22.69
2018-09-25T09:08:14.476Z,22.68
2018-09-25T09:09:14.992Z,22.66
2018-09-25T09:10:15.562Z,22.65
2018-09-25T09:11:16.180Z,22.72
2018-09-25T09:12:16.758Z,22.65
2018-09-25T09:13:17.335Z,22.69
2018-09-25T09:14:17.911Z,22.72
2018-09-25T09:15:18.487Z,22.69
2018-09-25T09:16:19.063Z,22.70
2018-09-25T09:18:04.045Z,22.70
2018-09-25T09:19:04.661Z,22.72
2018-09-25T09:20:05.260Z,22.80
2018-09-25T09:21:05.813Z,22.70
2018-09-25T09:22:06.441Z,22.72
2018-09-25T09:23:07.067Z,22.75
2018-09-25T09:24:07.647Z,22.76
2018-09-25T09:25:08.283Z,22.81
2018-09-25T09:26:08.886Z,22.87
2018-09-25T09:27:09.463Z,22.76
2018-09-25T09:28:10.091Z,22.70
2018-09-25T09:29:10.614Z,22.78
2018-09-25T09:30:11.190Z,22.76
2018-09-25T09:31:11.768Z,22.75
2018-09-25T09:32:56.694Z,22.75
2018-09-25T09:33:57.279Z,22.80
2018-09-25T09:34:57.846Z,22.81
2018-09-25T09:35:58.423Z,22.83
2018-09-25T09:36:59.000Z,22.78
2018-09-25T09:37:59.577Z,22.75
2018-09-25T09:39:00.203Z,22.75
2018-09-25T09:40:00.783Z,22.72
2018-09-25T09:41:01.505Z,22.75
2018-09-25T09:42:02.089Z,22.80
2018-09-25T09:43:02.590Z,22.76
2018-09-25T09:44:03.164Z,22.78
2018-09-25T09:45:03.792Z,22.87
2018-09-25T09:46:04.418Z,22.76
2018-09-25T09:47:49.345Z,22.78
2018-09-25T09:48:49.920Z,22.80
2018-09-25T09:49:50.497Z,22.81
2018-09-25T09:50:51.074Z,22.81
2018-09-25T09:51:51.650Z,22.73
2018-09-25T09:52:52.226Z,22.87
2018-09-25T09:53:52.802Z,22.84
2018-09-25T09:54:53.437Z,22.88
2018-09-25T09:55:54.006Z,22.81
2018-09-25T09:56:54.585Z,22.80
2018-09-25T09:57:55.163Z,22.81
2018-09-25T09:58:55.739Z,22.84
2018-09-25T09:59:56.315Z,22.84
2018-09-25T10:00:56.892Z,22.84
2018-09-25T10:02:41.820Z,22.81
2018-09-25T10:03:42.447Z,22.83
2018-09-25T10:04:43.019Z,22.91
2018-09-25T10:05:43.645Z,22.88
2018-09-25T10:06:44.261Z,22.87
2018-09-25T10:07:44.798Z,22.85
2018-09-25T10:08:45.375Z,22.85
2018-09-25T10:09:45.952Z,22.85
2018-09-25T10:10:46.678Z,22.93
2018-09-25T10:11:47.254Z,22.85
2018-09-25T10:12:47.832Z,22.87
2018-09-25T10:13:48.408Z,22.90
2018-09-25T10:14:48.986Z,22.84
2018-09-25T10:15:49.561Z,22.91
2018-09-25T10:17:34.488Z,22.88
2018-09-25T10:18:35.064Z,22.87
2018-09-25T10:19:35.643Z,22.91
2018-09-25T10:20:36.261Z,22.90
2018-09-25T10:21:36.839Z,22.85
2018-09-25T10:22:37.470Z,22.81
2018-09-25T10:23:38.099Z,22.90
2018-09-25T10:24:38.674Z,22.90
2018-09-25T10:25:39.252Z,22.87
2018-09-25T10:26:39.831Z,22.88
2018-09-25T10:27:40.559Z,22.87
2018-09-25T10:28:41.132Z,22.91
2018-09-25T10:29:41.709Z,22.90
2018-09-25T10:30:42.285Z,22.91
2018-09-25T10:32:27.263Z,22.85
2018-09-25T10:33:27.840Z,22.88
2018-09-25T10:34:28.467Z,22.93
2018-09-25T10:35:29.045Z,22.99
2018-09-25T10:36:29.622Z,22.91
2018-09-25T10:37:30.198Z,22.96
2018-09-25T10:38:30.775Z,22.90
2018-09-25T10:39:31.402Z,22.99
2018-09-25T10:40:31.980Z,22.96
2018-09-25T10:41:32.556Z,22.96
2018-09-25T10:42:33.138Z,22.93
2018-09-25T10:43:33.751Z,22.94
2018-09-25T10:44:34.328Z,23.00
2018-09-25T10:45:34.947Z,22.96
2018-09-25T10:47:19.923Z,22.98
2018-09-25T10:48:20.499Z,23.05
2018-09-25T10:49:21.075Z,23.05
2018-09-25T10:50:21.671Z,23.08
2018-09-25T10:51:22.281Z,23.05
2018-09-25T10:52:22.858Z,23.02
2018-09-25T10:53:23.442Z,22.99
2018-09-25T10:54:24.013Z,23.03
2018-09-25T10:55:24.607Z,22.99
2018-09-25T10:56:25.167Z,22.99
2018-09-25T10:57:25.746Z,23.02
2018-09-25T10:58:26.372Z,23.05
2018-09-25T10:59:26.948Z,23.00
2018-09-25T11:00:32.579Z,23.06
2018-09-25T11:02:17.505Z,23.02
2018-09-25T11:03:18.252Z,23.03
2018-09-25T11:04:18.659Z,23.02
2018-09-25T11:05:19.235Z,23.05
2018-09-25T11:06:19.864Z,23.05
2018-09-25T11:07:20.440Z,22.99
2018-09-25T11:08:21.017Z,23.00
2018-09-25T11:09:21.592Z,23.12
2018-09-25T11:10:22.169Z,22.99
2018-09-25T11:11:22.790Z,23.12
2018-09-25T11:12:23.368Z,23.00
2018-09-25T11:13:23.946Z,23.05
2018-09-25T11:14:24.524Z,23.05
2018-09-25T11:15:25.109Z,23.06
2018-09-25T11:17:10.076Z,23.10
2018-09-25T11:18:10.655Z,23.06
2018-09-25T11:19:11.231Z,23.15
2018-09-25T11:20:11.806Z,23.15
2018-09-25T11:21:12.383Z,23.10
2018-09-25T11:22:13.010Z,23.13
2018-09-25T11:23:13.587Z,23.12
2018-09-25T11:24:14.315Z,23.21
2018-09-25T11:25:14.892Z,23.09
2018-09-25T11:26:15.473Z,23.20
2018-09-25T11:27:16.090Z,23.23
2018-09-25T11:28:16.665Z,23.15
2018-09-25T11:29:17.242Z,23.15
2018-09-25T11:31:23.753Z,23.20
2018-09-25T11:33:08.674Z,23.21
2018-09-25T11:34:09.288Z,23.18
2018-09-25T11:35:10.020Z,23.20
2018-09-25T11:36:10.545Z,23.21
2018-09-25T11:37:11.122Z,23.20
2018-09-25T11:38:11.700Z,23.23
2018-09-25T11:39:12.275Z,23.21
2018-09-25T11:40:12.854Z,23.13
2018-09-25T11:41:13.545Z,23.23
2018-09-25T11:42:14.100Z,23.25
2018-09-25T11:43:14.678Z,23.18
2018-09-25T11:44:15.251Z,23.20
2018-09-25T11:45:15.827Z,23.23
2018-09-25T11:46:16.408Z,23.18
2018-09-25T11:48:01.383Z,23.18
2018-09-25T11:49:01.960Z,23.20
2018-09-25T11:50:02.588Z,23.23
2018-09-25T11:51:03.214Z,23.25
2018-09-25T11:52:03.793Z,23.20
2018-09-25T11:53:04.412Z,23.20
2018-09-25T11:54:04.988Z,23.23
2018-09-25T11:55:05.566Z,23.25
2018-09-25T11:56:06.143Z,23.23
2018-09-25T11:57:06.719Z,23.20
2018-09-25T11:58:07.296Z,23.20
2018-09-25T11:59:07.871Z,23.21
2018-09-25T12:00:08.447Z,23.24
2018-09-25T12:01:09.075Z,23.18
2018-09-25T12:02:54.000Z,23.27
2018-09-25T12:03:54.575Z,23.15
2018-09-25T12:04:55.152Z,23.23
2018-09-25T12:05:55.730Z,23.23
2018-09-25T12:06:56.309Z,23.27
2018-09-25T12:07:56.935Z,23.23
2018-09-25T12:08:57.513Z,23.25
2018-09-25T12:09:58.140Z,23.21
2018-09-25T12:10:58.718Z,23.23
2018-09-25T12:11:59.345Z,23.25
2018-09-25T12:12:59.927Z,23.21
2018-09-25T12:14:00.543Z,23.24
2018-09-25T12:15:01.118Z,23.24
2018-09-25T12:16:01.695Z,23.23
2018-09-25T12:17:46.630Z,23.24
2018-09-25T12:18:47.197Z,23.25
2018-09-25T12:19:47.837Z,23.23
2018-09-25T12:20:48.350Z,23.13
2018-09-25T12:21:48.928Z,23.18
2018-09-25T12:22:49.504Z,23.20
2018-09-25T12:23:50.080Z,23.17
2018-09-25T12:24:50.658Z,23.21
2018-09-25T12:25:51.287Z,23.18
2018-09-25T12:26:51.905Z,23.20
2018-09-25T12:27:52.532Z,23.20
2018-09-25T12:28:53.108Z,23.18
2018-09-25T12:29:53.685Z,23.17
2018-09-25T12:30:54.310Z,23.20
2018-09-25T12:32:39.381Z,23.20
2018-09-25T12:33:39.866Z,23.18
2018-09-25T12:34:40.447Z,23.15
2018-09-25T12:35:41.017Z,23.23
2018-09-25T12:36:41.596Z,23.18
2018-09-25T12:37:42.181Z,23.12
2018-09-25T12:38:42.839Z,23.12
2018-09-25T12:39:43.369Z,23.20
2018-09-25T12:40:43.944Z,23.18
2018-09-25T12:41:44.522Z,23.18
2018-09-25T12:42:45.148Z,23.15
2018-09-25T12:43:45.775Z,23.20
2018-09-25T12:44:46.352Z,23.20
2018-09-25T12:45:46.929Z,23.09
2018-09-25T12:47:31.859Z,23.20
2018-09-25T12:48:32.432Z,23.15
2018-09-25T12:49:33.009Z,23.13
2018-09-25T12:50:33.635Z,23.18
2018-09-25T12:51:34.216Z,23.17
2018-09-25T12:52:34.813Z,23.18
2018-09-25T12:53:35.374Z,23.17
2018-09-25T12:54:35.986Z,23.12
2018-09-25T12:55:36.562Z,23.18
2018-09-25T12:56:37.140Z,23.15
2018-09-25T12:57:37.717Z,23.20
2018-09-25T12:58:38.293Z,23.20
2018-09-25T12:59:38.868Z,23.18
2018-09-25T13:00:39.497Z,23.18
2018-09-25T13:02:24.469Z,23.18
2018-09-25T13:03:25.045Z,23.15
2018-09-25T13:04:25.621Z,23.20
2018-09-25T13:05:26.198Z,23.23
2018-09-25T13:06:26.776Z,23.20
2018-09-25T13:07:27.353Z,23.18
2018-09-25T13:08:27.929Z,23.12
2018-09-25T13:09:28.613Z,23.18
2018-09-25T13:10:29.168Z,23.12
2018-09-25T13:11:29.746Z,23.17
2018-09-25T13:12:30.322Z,23.20
2018-09-25T13:13:30.897Z,23.15
2018-09-25T13:14:31.475Z,23.13
2018-09-25T13:15:32.051Z,23.09
2018-09-25T13:17:16.984Z,23.18
2018-09-25T13:18:17.610Z,23.15
2018-09-25T13:19:18.185Z,23.23
2018-09-25T13:20:18.812Z,23.18
2018-09-25T13:21:19.387Z,23.18
2018-09-25T13:22:20.013Z,23.18
2018-09-25T13:23:20.632Z,23.28
2018-09-25T13:24:21.208Z,23.25
2018-09-25T13:25:21.787Z,23.25
2018-09-25T13:26:22.364Z,23.24
2018-09-25T13:27:22.941Z,23.27
2018-09-25T13:28:23.516Z,23.25
2018-09-25T13:29:24.093Z,23.27
2018-09-25T13:30:24.670Z,23.27
2018-09-25T13:32:09.598Z,23.31
2018-09-25T13:33:10.230Z,23.39
2018-09-25T13:34:10.749Z,23.36
2018-09-25T13:35:11.375Z,23.34
2018-09-25T13:36:12.004Z,23.37
2018-09-25T13:37:12.580Z,23.28
2018-09-25T13:38:13.158Z,23.28
2018-09-25T13:39:13.785Z,23.37
2018-09-25T13:40:14.362Z,23.34
2018-09-25T13:41:14.943Z,23.32
2018-09-25T13:42:15.517Z,23.39
2018-09-25T13:43:16.091Z,23.39